Terminal Aerodrome Forecast
Issued by NWS Chicago, IL

Home | Current Version | Previous Version | Text Only | Print | Product List | Glossary Off
Versions: 1 2 3 4 5 6 7 8 9 10 11 12 13 14 15 16 17 18 19 20 21 22 23 24

907
FTUS43 KLOT 211727
TAFRFD
TAF
KRFD 211727Z 2118/2218 30010G17KT P6SM SCT035
     FM212300 28004KT P6SM FEW035
     FM220200 VRB03KT P6SM SKC
     FM221500 21007KT P6SM SCT040=

USA.gov is the U.S. government's official web portal to all federal, state and local government web resources and services.